Heron — 3EJH7 — position and weather

sailwx.info

Track history (hours):
 
Tides and Currents Weather Stations Pressure Air Temp Water Temp Dewpoint Dewpoint Depression Visibility Wind Speed Wind Dir Waves Ship Positions

Heron

Last reported at 2014-Mar-05 04:34 UTC. Time now 2014-Jul-24 02:03 UTC.
Position N 22°36' E 120°18'.
Warning: this ship's position is months out of date.

Type: Ship. MMSI: 372524000.

Date/timePositionNaut miles runAvg speedWind from/ knotsBaromVisibWave heightAir tempDewpointWater temp
2014-Mar-05 04:34N 22°36' E 120°18'0 0.0
2014-Mar-05 03:33N 22°36' E 120°18'0 0.0
2014-Mar-05 02:33N 22°36' E 120°18'0 0.0
2014-Mar-05 01:34N 22°36' E 120°18'0 0.0
2014-Mar-05 00:34N 22°36' E 120°18'0 0.0
2014-Mar-04 23:34N 22°36' E 120°18'0 0.0
2014-Mar-04 22:34N 22°36' E 120°18'0 0.1
2014-Mar-04 21:34N 22°36' E 120°18'0 0.1
2014-Mar-04 20:33N 22°36' E 120°18'0 0.1
2014-Mar-04 19:34N 22°36' E 120°18'0 0.0
2014-Mar-04 18:33N 22°36' E 120°18'0 0.0
2014-Mar-04 17:34N 22°36' E 120°18'0 0.0
2014-Mar-04 16:34N 22°36' E 120°18'0 0.0
2014-Mar-04 15:34N 22°36' E 120°18'0 0.0
2014-Mar-04 14:33N 22°36' E 120°18'0 0.1
2014-Mar-04 13:32N 22°36' E 120°18'0 0.0
2014-Mar-04 12:34N 22°36' E 120°18'0 0.0
2014-Mar-04 11:34N 22°36' E 120°18'0 0.0
2014-Mar-04 10:34N 22°36' E 120°18'0 0.0
2014-Mar-04 09:33N 22°36' E 120°18'0 0.0
2014-Mar-04 08:34N 22°36' E 120°18'0 0.0
2014-Mar-04 07:33N 22°36' E 120°18'0 0.0
2014-Mar-04 06:32N 22°36' E 120°18'0 0.0
2014-Mar-04 05:33N 22°36' E 120°18'0 0.0
2014-Mar-04 04:33N 22°36' E 120°18'0 0.0
2014-Mar-04 03:34N 22°36' E 120°18'0 0.0
2014-Mar-04 02:34N 22°36' E 120°18'1 0.9
2014-Mar-04 01:33N 22°37' E 120°17'5 5.2
2014-Mar-04 00:34N 22°33' E 120°20'0 0.0
2014-Mar-03 23:32N 22°33' E 120°20'0 0.0
2014-Mar-03 21:26N 22°33' E 120°20'0 0.0
2014-Mar-03 19:20N 22°33' E 120°20'0 0.0
2014-Mar-03 18:26N 22°33' E 120°20'0 0.0
2014-Mar-03 10:20N 22°33' E 120°20'0 0.0
2014-Mar-03 09:14N 22°33' E 120°20'0 0.0
2014-Mar-03 08:32N 22°33' E 120°20'0 0.0
2014-Mar-03 07:26N 22°33' E 120°20'0 0.0
2014-Mar-03 03:26N 22°33' E 120°20'0 0.0
2014-Mar-02 12:26N 22°33' E 120°20'0 0.0
2014-Mar-02 10:14N 22°33' E 120°20'1 1.2
2014-Mar-02 09:32N 22°33' E 120°20'4 3.8
2014-Mar-02 08:33N 22°32' E 120°16'1 1.0
2014-Mar-02 07:24N 22°30' E 120°16'0 0.0
2014-Mar-02 06:30N 22°30' E 120°16'0 0.0
2014-Mar-02 05:24N 22°30' E 120°16'0 0.0
2014-Mar-02 04:30N 22°30' E 120°16'0 0.0
2014-Mar-02 02:30N 22°30' E 120°16'0 0.0
2014-Mar-02 01:30N 22°30' E 120°16'0 0.0
2014-Mar-02 00:30N 22°30' E 120°16'0 0.1
2014-Mar-01 23:30N 22°30' E 120°16'0 0.1
2014-Mar-01 22:30N 22°30' E 120°16'0 0.1
2014-Mar-01 21:30N 22°30' E 120°16'0 0.0
2014-Mar-01 20:24N 22°30' E 120°16'0 0.0
2014-Mar-01 19:30N 22°30' E 120°16'0 0.0
2014-Mar-01 18:30N 22°31' E 120°16'0 0.0
2014-Mar-01 17:30N 22°31' E 120°16'0 0.1
2014-Mar-01 16:30N 22°31' E 120°16'0 0.0
2014-Mar-01 15:30N 22°31' E 120°16'0 0.0
2014-Mar-01 14:30N 22°31' E 120°16'0 0.0
2014-Mar-01 13:30N 22°31' E 120°16'0 0.0
2014-Mar-01 12:30N 22°31' E 120°16'0 0.0
2014-Mar-01 11:24N 22°31' E 120°16'0 0.0
2014-Mar-01 10:30N 22°31' E 120°16'0 0.0
2014-Mar-01 09:30N 22°31' E 120°16'0 0.0
2014-Mar-01 08:30N 22°31' E 120°16'0 0.0
2014-Mar-01 07:30N 22°31' E 120°16'0 0.1
2014-Mar-01 06:30N 22°31' E 120°16'0 0.0
2014-Mar-01 05:24N 22°31' E 120°16'0 0.0
2014-Mar-01 04:18N 22°31' E 120°16'0 0.1
2014-Mar-01 03:30N 22°31' E 120°16'0 0.0
2014-Mar-01 02:24N 22°31' E 120°16'0 0.0
2014-Mar-01 01:30N 22°31' E 120°16'0 0.1
2014-Mar-01 00:30N 22°31' E 120°16'0 0.0
2014-Feb-28 23:30N 22°31' E 120°16'0 0.1
2014-Feb-28 22:30N 22°31' E 120°16'0 0.1
2014-Feb-28 21:30N 22°31' E 120°16'0 0.1
2014-Feb-28 20:30N 22°31' E 120°16'0 0.1
2014-Feb-28 19:24N 22°31' E 120°16'0 0.1
2014-Feb-28 18:30N 22°31' E 120°16'0 0.0
2014-Feb-28 17:30N 22°31' E 120°16'0 0.0
2014-Feb-28 16:30N 22°31' E 120°16'0 0.0
2014-Feb-28 15:30N 22°31' E 120°16'0 0.1
2014-Feb-28 14:30N 22°31' E 120°16'0 0.1
2014-Feb-28 13:30N 22°31' E 120°16'0 0.1
2014-Feb-28 12:30N 22°31' E 120°16'0 0.1
2014-Feb-28 11:30N 22°31' E 120°16'0 0.1
2014-Feb-28 10:24N 22°31' E 120°16'0 0.1
2014-Feb-28 09:30N 22°31' E 120°16'0 0.0
2014-Feb-28 08:24N 22°31' E 120°16'0 0.0
2014-Feb-28 07:30N 22°31' E 120°16'0 0.0
2014-Feb-28 06:30N 22°31' E 120°16'0 0.0
2014-Feb-28 05:18N 22°31' E 120°16'0 0.1
2014-Feb-28 04:18N 22°31' E 120°16'0 0.1
2014-Feb-28 03:30N 22°31' E 120°16'0 0.1
2014-Feb-28 02:30N 22°30' E 120°16'0 0.1
2014-Feb-28 01:30N 22°30' E 120°16'0 0.1
2014-Feb-28 00:30N 22°30' E 120°16'0 0.1
2014-Feb-27 23:30N 22°31' E 120°16'0 0.1
2014-Feb-27 22:30N 22°31' E 120°16'0 0.1
2014-Feb-27 21:30N 22°30' E 120°16'0 0.0
2014-Feb-27 19:30N 22°30' E 120°16'0 0.0
2014-Feb-27 18:30N 22°30' E 120°16'0 0.0
2014-Feb-27 17:30N 22°30' E 120°16'0 0.0
2014-Feb-27 16:24N 22°30' E 120°16'0 0.0
2014-Feb-27 15:30N 22°30' E 120°16'0 0.0
2014-Feb-27 14:30N 22°30' E 120°16'0 0.0
2014-Feb-27 13:30N 22°30' E 120°16'0 0.0
2014-Feb-27 12:24N 22°30' E 120°16'0 0.0
2014-Feb-27 11:30N 22°30' E 120°16'0 0.0
2014-Feb-27 10:24N 22°30' E 120°16'0 0.0
2014-Feb-27 09:30N 22°30' E 120°16'0 0.0
2014-Feb-27 08:33N 22°30' E 120°16'1 1.2
2014-Feb-27 07:33N 22°29' E 120°17'8 7.9
2014-Feb-27 06:33N 22°21' E 120°15'  
Track history (hours):
 
Tides and Currents Weather Stations Pressure Air Temp Water Temp Dewpoint Dewpoint Depression Visibility Wind Speed Wind Dir Waves Ship Positions

Heron

Last reported at 2014-Mar-05 04:34 UTC. Time now 2014-Jul-24 02:03 UTC.
Position N 22°36' E 120°18'.
Warning: this ship's position is months out of date.

Type: Ship. MMSI: 372524000.

Date/timePositionNaut miles runAvg speedWind from/ knotsBaromVisibWave heightAir tempDewpointWater temp
2014-Mar-05 04:34N 22°36' E 120°18'0 0.0
2014-Mar-05 03:33N 22°36' E 120°18'0 0.0
2014-Mar-05 02:33N 22°36' E 120°18'0 0.0
2014-Mar-05 01:34N 22°36' E 120°18'0 0.0
2014-Mar-05 00:34N 22°36' E 120°18'0 0.0
2014-Mar-04 23:34N 22°36' E 120°18'0 0.0
2014-Mar-04 22:34N 22°36' E 120°18'0 0.1
2014-Mar-04 21:34N 22°36' E 120°18'0 0.1
2014-Mar-04 20:33N 22°36' E 120°18'0 0.1
2014-Mar-04 19:34N 22°36' E 120°18'0 0.0
2014-Mar-04 18:33N 22°36' E 120°18'0 0.0
2014-Mar-04 17:34N 22°36' E 120°18'0 0.0
2014-Mar-04 16:34N 22°36' E 120°18'0 0.0
2014-Mar-04 15:34N 22°36' E 120°18'0 0.0
2014-Mar-04 14:33N 22°36' E 120°18'0 0.1
2014-Mar-04 13:32N 22°36' E 120°18'0 0.0
2014-Mar-04 12:34N 22°36' E 120°18'0 0.0
2014-Mar-04 11:34N 22°36' E 120°18'0 0.0
2014-Mar-04 10:34N 22°36' E 120°18'0 0.0
2014-Mar-04 09:33N 22°36' E 120°18'0 0.0
2014-Mar-04 08:34N 22°36' E 120°18'0 0.0
2014-Mar-04 07:33N 22°36' E 120°18'0 0.0
2014-Mar-04 06:32N 22°36' E 120°18'0 0.0
2014-Mar-04 05:33N 22°36' E 120°18'0 0.0
2014-Mar-04 04:33N 22°36' E 120°18'0 0.0
2014-Mar-04 03:34N 22°36' E 120°18'0 0.0
2014-Mar-04 02:34N 22°36' E 120°18'1 0.9
2014-Mar-04 01:33N 22°37' E 120°17'5 5.2
2014-Mar-04 00:34N 22°33' E 120°20'0 0.0
2014-Mar-03 23:32N 22°33' E 120°20'0 0.0
2014-Mar-03 21:26N 22°33' E 120°20'0 0.0
2014-Mar-03 19:20N 22°33' E 120°20'0 0.0
2014-Mar-03 18:26N 22°33' E 120°20'0 0.0
2014-Mar-03 10:20N 22°33' E 120°20'0 0.0
2014-Mar-03 09:14N 22°33' E 120°20'0 0.0
2014-Mar-03 08:32N 22°33' E 120°20'0 0.0
2014-Mar-03 07:26N 22°33' E 120°20'0 0.0
2014-Mar-03 03:26N 22°33' E 120°20'0 0.0
2014-Mar-02 12:26N 22°33' E 120°20'0 0.0
2014-Mar-02 10:14N 22°33' E 120°20'1 1.2
2014-Mar-02 09:32N 22°33' E 120°20'4 3.8
2014-Mar-02 08:33N 22°32' E 120°16'1 1.0
2014-Mar-02 07:24N 22°30' E 120°16'0 0.0
2014-Mar-02 06:30N 22°30' E 120°16'0 0.0
2014-Mar-02 05:24N 22°30' E 120°16'0 0.0
2014-Mar-02 04:30N 22°30' E 120°16'0 0.0
2014-Mar-02 02:30N 22°30' E 120°16'0 0.0
2014-Mar-02 01:30N 22°30' E 120°16'0 0.0
2014-Mar-02 00:30N 22°30' E 120°16'0 0.1
2014-Mar-01 23:30N 22°30' E 120°16'0 0.1
2014-Mar-01 22:30N 22°30' E 120°16'0 0.1
2014-Mar-01 21:30N 22°30' E 120°16'0 0.0
2014-Mar-01 20:24N 22°30' E 120°16'0 0.0
2014-Mar-01 19:30N 22°30' E 120°16'0 0.0
2014-Mar-01 18:30N 22°31' E 120°16'0 0.0
2014-Mar-01 17:30N 22°31' E 120°16'0 0.1
2014-Mar-01 16:30N 22°31' E 120°16'0 0.0
2014-Mar-01 15:30N 22°31' E 120°16'0 0.0
2014-Mar-01 14:30N 22°31' E 120°16'0 0.0
2014-Mar-01 13:30N 22°31' E 120°16'0 0.0
2014-Mar-01 12:30N 22°31' E 120°16'0 0.0
2014-Mar-01 11:24N 22°31' E 120°16'0 0.0
2014-Mar-01 10:30N 22°31' E 120°16'0 0.0
2014-Mar-01 09:30N 22°31' E 120°16'0 0.0
2014-Mar-01 08:30N 22°31' E 120°16'0 0.0
2014-Mar-01 07:30N 22°31' E 120°16'0 0.1
2014-Mar-01 06:30N 22°31' E 120°16'0 0.0
2014-Mar-01 05:24N 22°31' E 120°16'0 0.0
2014-Mar-01 04:18N 22°31' E 120°16'0 0.1
2014-Mar-01 03:30N 22°31' E 120°16'0 0.0
2014-Mar-01 02:24N 22°31' E 120°16'0 0.0
2014-Mar-01 01:30N 22°31' E 120°16'0 0.1
2014-Mar-01 00:30N 22°31' E 120°16'0 0.0
2014-Feb-28 23:30N 22°31' E 120°16'0 0.1
2014-Feb-28 22:30N 22°31' E 120°16'0 0.1
2014-Feb-28 21:30N 22°31' E 120°16'0 0.1
2014-Feb-28 20:30N 22°31' E 120°16'0 0.1
2014-Feb-28 19:24N 22°31' E 120°16'0 0.1
2014-Feb-28 18:30N 22°31' E 120°16'0 0.0
2014-Feb-28 17:30N 22°31' E 120°16'0 0.0
2014-Feb-28 16:30N 22°31' E 120°16'0 0.0
2014-Feb-28 15:30N 22°31' E 120°16'0 0.1
2014-Feb-28 14:30N 22°31' E 120°16'0 0.1
2014-Feb-28 13:30N 22°31' E 120°16'0 0.1
2014-Feb-28 12:30N 22°31' E 120°16'0 0.1
2014-Feb-28 11:30N 22°31' E 120°16'0 0.1
2014-Feb-28 10:24N 22°31' E 120°16'0 0.1
2014-Feb-28 09:30N 22°31' E 120°16'0 0.0
2014-Feb-28 08:24N 22°31' E 120°16'0 0.0
2014-Feb-28 07:30N 22°31' E 120°16'0 0.0
2014-Feb-28 06:30N 22°31' E 120°16'0 0.0
2014-Feb-28 05:18N 22°31' E 120°16'0 0.1
2014-Feb-28 04:18N 22°31' E 120°16'0 0.1
2014-Feb-28 03:30N 22°31' E 120°16'0 0.1
2014-Feb-28 02:30N 22°30' E 120°16'0 0.1
2014-Feb-28 01:30N 22°30' E 120°16'0 0.1
2014-Feb-28 00:30N 22°30' E 120°16'0 0.1
2014-Feb-27 23:30N 22°31' E 120°16'0 0.1
2014-Feb-27 22:30N 22°31' E 120°16'0 0.1
2014-Feb-27 21:30N 22°30' E 120°16'0 0.0
2014-Feb-27 19:30N 22°30' E 120°16'0 0.0
2014-Feb-27 18:30N 22°30' E 120°16'0 0.0
2014-Feb-27 17:30N 22°30' E 120°16'0 0.0
2014-Feb-27 16:24N 22°30' E 120°16'0 0.0
2014-Feb-27 15:30N 22°30' E 120°16'0 0.0
2014-Feb-27 14:30N 22°30' E 120°16'0 0.0
2014-Feb-27 13:30N 22°30' E 120°16'0 0.0
2014-Feb-27 12:24N 22°30' E 120°16'0 0.0
2014-Feb-27 11:30N 22°30' E 120°16'0 0.0
2014-Feb-27 10:24N 22°30' E 120°16'0 0.0
2014-Feb-27 09:30N 22°30' E 120°16'0 0.0
2014-Feb-27 08:33N 22°30' E 120°16'1 1.2
2014-Feb-27 07:33N 22°29' E 120°17'8 7.9
2014-Feb-27 06:33N 22°21' E 120°15'  

Dump ship's entire track history